Time;durP1;ratioP1;P1;durP2;ratioP2;P2;SDS_P1;SDS_P2;PMS_P1;PMS_P2;Temp;Humidity;BMP_temperature;BMP_pressure;BME280_temperature;BME280_humidity;BME280_pressure;Samples;Min_cycle;Max_cycle;Signal;HPM_P1;HPM_P2
2021/07/25 00:02:22;;;;;;;7.47;4.03;;;;;;;29.72;64.98;100751.78;5093934;27;65224;-37
2021/07/25 00:04:52;;;;;;;4.80;4.35;;;;;;;29.83;63.99;100751.09;5090839;27;69881;-37
2021/07/25 00:07:22;;;;;;;5.05;4.18;;;;;;;29.97;63.50;100756.44;5091658;27;66612;-37
2021/07/25 00:09:53;;;;;;;6.30;4.32;;;;;;;30.06;63.14;100764.09;5083762;27;70037;-37
2021/07/25 00:12:23;;;;;;;6.35;4.47;;;;;;;30.16;63.18;100774.41;5091945;27;65351;-39
2021/07/25 00:14:54;;;;;;;5.07;4.07;;;;;;;30.26;62.70;100765.88;5089086;27;70183;-37
2021/07/25 00:17:24;;;;;;;5.38;4.47;;;;;;;30.35;62.63;100771.84;5088035;27;66020;-37
2021/07/25 00:19:54;;;;;;;8.98;4.38;;;;;;;30.48;62.10;100764.44;5088352;27;69742;-38
2021/07/25 00:22:25;;;;;;;14.10;4.75;;;;;;;30.48;60.54;100753.63;5086493;27;66504;-37
2021/07/25 00:25:28;;;;;;;12.88;3.42;;;;;;;30.39;59.57;100748.69;5094428;27;70042;-37
2021/07/25 00:27:55;;;;;;;8.50;3.13;;;;;;;30.59;58.03;100795.41;5088363;27;65688;-37
2021/07/25 00:30:26;;;;;;;7.38;3.10;;;;;;;30.58;57.03;100780.19;5074559;27;69699;-36
2021/07/25 00:33:04;;;;;;;5.70;1.63;;;;;;;30.56;55.74;100782.28;5093593;27;66535;-37
2021/07/25 00:35:35;;;;;;;12.02;1.75;;;;;;;30.54;55.19;100773.56;5095288;27;69937;-37
2021/07/25 00:38:05;;;;;;;14.23;1.60;;;;;;;30.55;55.32;100775.22;5093804;27;65144;-36
2021/07/25 00:40:42;;;;;;;19.40;1.50;;;;;;;30.53;56.04;100762.94;5088965;27;69286;-37
2021/07/25 00:43:29;;;;;;;17.73;1.25;;;;;;;30.41;56.23;100744.72;5090997;27;66277;-37
2021/07/25 00:45:59;;;;;;;8.82;1.02;;;;;;;30.77;56.41;100801.91;5090995;27;69805;-37
2021/07/25 00:48:30;;;;;;;15.60;1.10;;;;;;;30.86;56.72;100793.28;5092427;27;65137;-37
2021/07/25 00:51:02;;;;;;;4.63;0.95;;;;;;;30.89;56.83;100778.47;5095636;27;69909;-37
2021/07/25 00:53:38;;;;;;;6.28;1.48;;;;;;;30.75;57.29;100753.38;5085596;27;66574;-37
2021/07/25 00:56:10;;;;;;;2.88;2.40;;;;;;;30.90;57.26;100764.72;5089445;27;70313;-36
2021/07/25 00:58:42;;;;;;;7.00;3.15;;;;;;;30.94;57.45;100768.63;5095701;27;66176;-37
2021/07/25 01:01:14;;;;;;;5.72;4.07;;;;;;;31.19;58.43;100813.00;5095078;27;70132;-37
2021/07/25 01:04:06;;;;;;;4.03;3.55;;;;;;;31.19;59.16;100813.00;5091741;27;66190;-37
2021/07/25 01:07:00;;;;;;;7.57;3.35;;;;;;;31.21;59.12;100816.31;5090046;27;69902;-37
2021/07/25 01:09:51;;;;;;;6.57;2.83;;;;;;;31.16;59.37;100820.53;5089183;27;66085;-37
2021/07/25 01:12:48;;;;;;;5.35;2.53;;;;;;;31.12;60.08;100823.91;5090200;27;69816;-35
2021/07/25 01:15:22;;;;;;;7.10;2.83;;;;;;;30.84;59.34;100781.03;5089455;27;65402;-36
2021/07/25 01:17:55;;;;;;;5.43;2.28;;;;;;;31.03;59.72;100808.97;5088781;27;69824;-36
2021/07/25 01:20:26;;;;;;;2.78;2.35;;;;;;;31.08;59.80;100807.25;5067383;27;66956;-36
2021/07/25 01:22:59;;;;;;;6.70;2.38;;;;;;;31.09;59.50;100810.78;5089742;27;70484;-37
2021/07/25 01:25:30;;;;;;;3.35;2.30;;;;;;;31.07;59.98;100811.03;5084972;27;65602;-36
2021/07/25 01:28:14;;;;;;;6.05;3.22;;;;;;;30.85;60.68;100786.22;5071365;27;70016;-36
2021/07/25 01:30:52;;;;;;;6.13;3.28;;;;;;;30.97;59.79;100816.13;5090009;27;65351;-37
2021/07/25 01:33:34;;;;;;;5.32;2.28;;;;;;;30.77;60.69;100791.06;5092502;27;70412;-38
2021/07/25 01:36:05;;;;;;;3.38;2.10;;;;;;;31.02;59.95;100837.13;5088242;27;66082;-37
2021/07/25 01:38:37;;;;;;;3.00;2.08;;;;;;;31.01;60.00;100839.03;5094588;27;70361;-38
2021/07/25 01:41:13;;;;;;;5.40;1.95;;;;;;;30.75;60.27;100801.28;5092819;27;66188;-38
2021/07/25 01:43:46;;;;;;;3.97;2.28;;;;;;;30.54;60.25;100770.84;5092322;27;70040;-37
2021/07/25 01:46:22;;;;;;;5.85;2.10;;;;;;;30.97;59.96;100854.03;5075873;27;66114;-37
2021/07/25 01:48:52;;;;;;;2.45;2.10;;;;;;;30.93;59.88;100837.41;5073480;27;70159;-38
2021/07/25 01:51:23;;;;;;;2.88;1.80;;;;;;;30.93;60.22;100842.00;5076970;27;66631;-38
2021/07/25 01:53:53;;;;;;;7.22;2.40;;;;;;;30.96;59.92;100846.97;5095412;27;68961;-37
2021/07/25 01:56:28;;;;;;;3.35;2.20;;;;;;;30.93;60.20;100848.25;5063347;27;65423;-37
2021/07/25 01:59:00;;;;;;;2.72;2.47;;;;;;;30.91;60.17;100844.09;5093585;27;70359;-37
2021/07/25 02:01:33;;;;;;;4.13;2.30;;;;;;;30.93;60.86;100826.59;5089147;27;65573;-38
2021/07/25 02:04:07;;;;;;;9.02;3.30;;;;;;;30.96;60.71;100828.03;5087703;27;69784;-38
2021/07/25 02:06:40;;;;;;;3.00;2.30;;;;;;;30.95;61.01;100829.06;5091400;27;65265;-36
2021/07/25 02:09:15;;;;;;;12.13;3.75;;;;;;;30.99;61.53;100819.44;5076899;27;70089;-37
2021/07/25 02:12:12;;;;;;;9.82;3.25;;;;;;;30.93;61.01;100820.34;5068887;27;66409;-37
2021/07/25 02:14:45;;;;;;;12.40;2.60;;;;;;;30.63;61.42;100783.06;5092814;27;70001;-37
2021/07/25 02:17:19;;;;;;;3.55;2.70;;;;;;;30.88;62.02;100817.47;5090457;27;65121;-38
2021/07/25 02:19:51;;;;;;;6.18;3.30;;;;;;;30.85;62.22;100813.31;5067320;27;69243;-37
2021/07/25 02:22:26;;;;;;;6.50;4.45;;;;;;;30.52;62.32;100769.41;5085106;27;66558;-37
2021/07/25 02:25:08;;;;;;;8.82;4.18;;;;;;;30.68;63.34;100807.59;5067386;27;70187;-37
2021/07/25 02:27:40;;;;;;;7.63;5.53;;;;;;;30.66;62.98;100806.16;5067387;27;66286;-38
2021/07/25 02:30:17;;;;;;;9.40;5.07;;;;;;;30.64;63.28;100810.97;5071400;27;69014;-39
2021/07/25 02:32:49;;;;;;;10.80;4.30;;;;;;;30.61;63.09;100812.22;5050298;27;64626;-36
2021/07/25 02:35:22;;;;;;;6.82;4.18;;;;;;;30.60;63.41;100805.16;5052356;27;69180;-38
2021/07/25 02:37:52;;;;;;;9.30;3.67;;;;;;;30.60;63.24;100804.34;5068424;27;66773;-38
2021/07/25 02:40:25;;;;;;;13.20;3.55;;;;;;;30.64;63.46;100805.53;5080319;27;71126;-38
2021/07/25 02:42:56;;;;;;;10.48;3.33;;;;;;;30.63;63.57;100810.13;5069456;27;66123;-36
2021/07/25 02:45:41;;;;;;;22.65;3.80;;;;;;;30.59;63.53;100800.81;5086777;27;70625;-36
2021/07/25 02:48:18;;;;;;;11.90;2.90;;;;;;;30.71;64.06;100817.16;5068027;27;66630;-36
2021/07/25 02:50:53;;;;;;;8.50;3.20;;;;;;;30.71;63.65;100817.97;5070977;27;69670;-38
2021/07/25 02:53:27;;;;;;;5.88;2.45;;;;;;;30.75;63.68;100822.97;5065364;27;66350;-38
2021/07/25 02:56:04;;;;;;;7.63;2.30;;;;;;;30.79;63.39;100826.91;5078821;27;70017;-37
2021/07/25 02:58:35;;;;;;;5.90;2.35;;;;;;;30.79;63.78;100816.06;5081045;27;65907;-38
2021/07/25 03:01:13;;;;;;;8.98;2.38;;;;;;;30.64;63.19;100779.28;5082002;27;68091;-37
2021/07/25 03:03:45;;;;;;;18.85;2.60;;;;;;;30.81;63.58;100811.25;5081242;27;66195;-37
2021/07/25 03:06:16;;;;;;;3.72;2.50;;;;;;;30.84;63.36;100814.38;5083722;27;69891;-37
2021/07/25 03:08:53;;;;;;;15.77;2.72;;;;;;;30.92;63.26;100819.53;5069284;27;65445;-37
2021/07/25 03:11:33;;;;;;;10.80;2.80;;;;;;;30.97;63.41;100826.97;5061412;27;70193;-37
2021/07/25 03:14:08;;;;;;;7.82;2.90;;;;;;;30.99;63.01;100819.44;5078928;27;65917;-36
2021/07/25 03:16:47;;;;;;;6.38;2.85;;;;;;;30.98;63.32;100812.38;5054553;27;70500;-36
2021/07/25 03:19:19;;;;;;;6.00;2.58;;;;;;;31.02;62.87;100821.72;5083353;27;65452;-38
2021/07/25 03:21:51;;;;;;;9.30;3.00;;;;;;;31.06;62.82;100828.31;5087650;27;69381;-37
2021/07/25 03:24:22;;;;;;;7.35;2.85;;;;;;;31.09;62.96;100829.75;5084498;27;66241;-37
2021/07/25 03:27:00;;;;;;;4.93;2.50;;;;;;;31.10;62.64;100840.38;5054392;27;70083;-38
2021/07/25 03:29:41;;;;;;;5.38;2.53;;;;;;;31.11;63.03;100844.75;5084990;27;66848;-37
2021/07/25 03:32:18;;;;;;;8.02;2.53;;;;;;;31.14;62.92;100840.75;5065322;27;69612;-38
2021/07/25 03:35:17;;;;;;;;;;;;;;;30.91;63.30;100844.94;5078005;27;65446;-38
2021/07/25 03:37:50;;;;;;;8.82;3.50;;;;;;;31.14;62.96;100849.72;5078759;27;70070;-38
2021/07/25 03:40:29;;;;;;;15.75;5.45;;;;;;;31.16;62.67;100831.34;5065569;27;65211;-36
2021/07/25 03:43:02;;;;;;;6.20;4.60;;;;;;;31.20;62.27;100837.16;5083530;27;70607;-38
2021/07/25 03:45:47;;;;;;;9.43;3.85;;;;;;;31.23;62.29;100836.72;5046888;27;65775;-38
2021/07/25 03:48:25;;;;;;;7.90;3.72;;;;;;;31.24;62.51;100843.81;5066672;27;70204;-36
2021/07/25 03:51:02;;;;;;;4.75;3.30;;;;;;;31.23;62.83;100825.03;5068895;27;65483;-38
2021/07/25 03:53:50;;;;;;;10.60;3.38;;;;;;;31.21;63.33;100829.88;5069875;27;70332;-38
2021/07/25 03:56:22;;;;;;;8.50;3.30;;;;;;;31.20;63.01;100823.59;5064036;27;66418;-39
2021/07/25 03:58:56;;;;;;;9.43;3.70;;;;;;;31.21;62.99;100810.91;5067991;27;69928;-38
2021/07/25 04:01:31;;;;;;;8.25;3.45;;;;;;;31.23;62.96;100812.34;5063629;27;66150;-38
2021/07/25 04:04:03;;;;;;;11.77;3.80;;;;;;;31.22;62.84;100805.25;5062288;27;69977;-38
2021/07/25 04:06:33;;;;;;;4.13;3.08;;;;;;;31.29;63.27;100802.47;5082028;27;66084;-38
2021/07/25 04:09:08;;;;;;;8.45;3.28;;;;;;;31.22;63.02;100791.69;5057169;27;69731;-38
2021/07/25 04:11:43;;;;;;;5.63;3.30;;;;;;;31.27;63.73;100804.59;5082327;27;65676;-38
2021/07/25 04:14:21;;;;;;;5.00;3.40;;;;;;;31.29;63.34;100810.63;5065089;27;69273;-38
2021/07/25 04:16:57;;;;;;;9.75;3.40;;;;;;;31.27;63.68;100805.41;5065818;27;66387;-38
2021/07/25 04:19:31;;;;;;;6.55;3.40;;;;;;;31.29;63.30;100791.66;5076338;27;70277;-39
2021/07/25 04:22:02;;;;;;;;;;;;;;;31.04;64.07;100795.22;5069864;27;65604;-42
2021/07/25 04:24:52;;;;;;;8.15;3.22;;;;;;;31.28;63.22;100776.41;5068955;27;69021;-39
2021/07/25 04:27:46;;;;;;;9.98;3.65;;;;;;;31.36;63.06;100792.41;5048727;27;65811;-44
2021/07/25 04:30:34;;;;;;;13.00;4.15;;;;;;;31.38;62.99;100795.75;5079598;27;69815;-37
2021/07/25 04:33:10;;;;;;;7.07;4.30;;;;;;;31.40;63.53;100788.22;5068955;27;66019;-38
2021/07/25 04:35:47;;;;;;;10.32;3.75;;;;;;;31.39;63.47;100775.69;5086796;27;69926;-39
2021/07/25 04:38:24;;;;;;;14.70;3.80;;;;;;;31.47;63.35;100788.13;5084055;27;65999;-37
2021/07/25 04:41:01;;;;;;;9.27;3.72;;;;;;;31.33;64.22;100765.72;5085972;27;69444;-38
2021/07/25 04:43:42;;;;;;;8.55;3.30;;;;;;;31.45;63.71;100771.25;5084525;27;65969;-38
2021/07/25 04:46:23;;;;;;;12.52;3.03;;;;;;;31.30;64.14;100755.34;5085786;27;69940;-39
2021/07/25 04:49:11;;;;;;;6.82;2.78;;;;;;;31.43;63.32;100776.09;5070416;27;65681;-39
2021/07/25 04:51:54;;;;;;;8.50;2.00;;;;;;;31.45;61.50;100772.06;5086013;27;69294;-41
2021/07/25 04:54:33;;;;;;;9.93;1.92;;;;;;;31.38;60.30;100772.16;5070442;27;66891;-38
2021/07/25 04:57:12;;;;;;;7.00;1.73;;;;;;;31.23;58.80;100762.72;5070610;27;70915;-38
2021/07/25 04:59:49;;;;;;;4.22;1.27;;;;;;;31.16;57.44;100755.50;5082067;27;65969;-39
2021/07/25 05:02:29;;;;;;;5.03;1.40;;;;;;;31.03;57.13;100761.03;5084867;27;70487;-38
2021/07/25 05:05:07;;;;;;;8.45;1.27;;;;;;;30.92;55.77;100748.25;5056854;27;67054;-39
2021/07/25 05:07:54;;;;;;;13.70;1.15;;;;;;;30.79;54.85;100740.25;5069219;27;70245;-38
2021/07/25 05:10:28;;;;;;;12.05;1.08;;;;;;;30.76;55.26;100732.53;5068772;27;66886;-40
2021/07/25 05:13:18;;;;;;;9.93;1.10;;;;;;;30.54;54.00;100692.34;5059365;27;69513;-38
2021/07/25 05:15:56;;;;;;;3.30;0.60;;;;;;;30.44;54.07;100687.44;5083626;27;66164;-39
2021/07/25 05:18:35;;;;;;;4.10;0.60;;;;;;;30.41;52.83;100687.88;5066715;27;69544;-38
2021/07/25 05:21:29;;;;;;;3.25;0.60;;;;;;;30.43;51.65;100712.84;5067443;27;65706;-38
2021/07/25 05:24:10;;;;;;;2.22;0.70;;;;;;;30.46;51.75;100717.00;5081924;27;70778;-38
2021/07/25 05:26:53;;;;;;;0.93;0.60;;;;;;;30.38;50.91;100714.56;5086160;27;66254;-37
2021/07/25 05:29:35;;;;;;;2.88;0.68;;;;;;;30.13;50.41;100676.66;5047812;27;70127;-38
2021/07/25 05:32:09;;;;;;;0.70;0.40;;;;;;;30.31;50.89;100701.06;5065987;27;66291;-38
2021/07/25 05:34:40;;;;;;;0.75;0.40;;;;;;;30.19;49.23;100678.47;5069736;27;69572;-38
2021/07/25 05:37:18;;;;;;;1.42;0.60;;;;;;;30.24;49.84;100698.44;5068923;27;66298;-37
2021/07/25 05:39:53;;;;;;;0.40;0.30;;;;;;;30.22;49.90;100695.09;5089096;27;69780;-38
2021/07/25 05:42:47;;;;;;;3.80;0.65;;;;;;;30.20;49.25;100686.38;5069953;27;66222;-38
2021/07/25 05:45:26;;;;;;;2.65;0.80;;;;;;;30.26;49.64;100676.59;5036669;27;69397;-37
2021/07/25 05:47:57;;;;;;;1.23;0.73;;;;;;;30.24;49.77;100665.97;5053401;27;65323;-37
2021/07/25 05:50:27;;;;;;;0.88;0.55;;;;;;;30.26;49.55;100658.47;5068709;27;68625;-37
2021/07/25 05:53:00;;;;;;;4.35;0.80;;;;;;;30.28;48.72;100661.78;5086868;27;65334;-38
2021/07/25 05:55:33;;;;;;;3.90;0.60;;;;;;;30.32;48.73;100656.75;5053119;27;68609;-38
2021/07/25 05:58:04;;;;;;;1.23;0.70;;;;;;;30.32;48.51;100655.91;5069599;27;66164;-38
2021/07/25 06:00:52;;;;;;;3.05;1.23;;;;;;;30.35;48.01;100639.25;5067436;27;70208;-38
2021/07/25 06:03:29;;;;;;;4.63;0.68;;;;;;;30.33;48.58;100638.63;5057488;27;66263;-38
2021/07/25 06:06:16;;;;;;;4.35;0.50;;;;;;;30.35;48.52;100639.25;5087717;27;70028;-37
2021/07/25 06:08:50;;;;;;;1.10;0.50;;;;;;;30.30;47.88;100639.06;5087492;27;65395;-38
2021/07/25 06:11:26;;;;;;;5.43;0.60;;;;;;;30.32;47.47;100634.28;5048788;27;70164;-38
2021/07/25 06:13:59;;;;;;;2.58;0.40;;;;;;;30.35;47.44;100641.94;5087668;27;65603;-36
2021/07/25 06:16:33;;;;;;;3.22;0.35;;;;;;;30.35;47.24;100620.31;5054700;27;70244;-38
2021/07/25 06:19:06;;;;;;;;;;;;;;;30.07;46.84;100618.84;5053565;27;65170;-38
2021/07/25 06:21:43;;;;;;;1.08;0.30;;;;;;;30.36;46.67;100613.81;5087437;27;69885;-37
2021/07/25 06:24:17;;;;;;;2.47;0.40;;;;;;;30.36;45.93;100608.41;5069247;27;65877;-37
2021/07/25 06:27:00;;;;;;;2.50;0.38;;;;;;;30.40;46.79;100610.47;5072254;27;69423;-38
2021/07/25 06:29:36;;;;;;;4.72;0.40;;;;;;;30.41;46.46;100612.09;5071525;27;66605;-39
2021/07/25 06:32:13;;;;;;;1.38;0.40;;;;;;;30.40;45.92;100594.22;5059730;27;70857;-40
2021/07/25 06:34:57;;;;;;;0.90;0.30;;;;;;;30.41;46.24;100584.22;5084690;27;66238;-37
2021/07/25 06:37:36;;;;;;;3.78;0.30;;;;;;;30.42;45.36;100583.16;5067576;27;70213;-38
2021/07/25 06:40:15;;;;;;;1.48;0.30;;;;;;;30.41;45.65;100571.50;5068417;27;66343;-37
2021/07/25 06:42:51;;;;;;;0.85;0.40;;;;;;;30.44;45.27;100578.34;5086696;27;70036;-38
2021/07/25 06:45:27;;;;;;;2.88;0.47;;;;;;;30.48;45.60;100574.16;5054249;27;64807;-37
2021/07/25 06:48:00;;;;;;;0.73;0.30;;;;;;;30.49;45.17;100564.97;5085714;27;69389;-37
2021/07/25 06:50:36;;;;;;;0.52;0.30;;;;;;;30.49;45.05;100576.63;5069816;27;65242;-37
2021/07/25 06:53:16;;;;;;;0.60;0.30;;;;;;;30.47;44.31;100567.91;5059298;27;69663;-37
2021/07/25 06:55:51;;;;;;;0.73;0.32;;;;;;;30.29;44.16;100548.97;5071070;27;66464;-37
2021/07/25 06:58:27;;;;;;;0.50;0.30;;;;;;;30.51;44.91;100565.59;5044757;27;69316;-38
2021/07/25 07:01:00;;;;;;;1.13;0.40;;;;;;;30.53;43.90;100560.75;5080668;27;65592;-38
2021/07/25 07:03:36;;;;;;;0.60;0.30;;;;;;;30.49;44.41;100559.56;5089050;27;69917;-38
2021/07/25 07:06:21;;;;;;;0.47;0.30;;;;;;;30.48;44.21;100560.63;5090644;27;65132;-37
2021/07/25 07:09:03;;;;;;;0.35;0.22;;;;;;;30.49;44.40;100562.28;5073855;27;69817;-38
2021/07/25 07:11:41;;;;;;;0.70;0.30;;;;;;;30.55;44.09;100574.91;5089340;27;66332;-38
2021/07/25 07:14:13;;;;;;;4.47;0.40;;;;;;;30.55;44.54;100558.66;5071307;27;68246;-38
2021/07/25 07:16:44;;;;;;;5.40;0.25;;;;;;;30.56;44.78;100557.59;5088473;27;66386;-37
2021/07/25 07:19:21;;;;;;;5.45;0.40;;;;;;;30.48;45.06;100547.09;5062048;27;70716;-39
2021/07/25 07:21:53;;;;;;;3.63;0.50;;;;;;;30.61;45.68;100546.91;5068709;27;65119;-38
2021/07/25 07:24:26;;;;;;;0.40;0.22;;;;;;;30.62;44.52;100559.41;5083428;27;69513;-39
2021/07/25 07:27:05;;;;;;;1.10;0.40;;;;;;;30.66;44.70;100554.38;5066994;27;66195;-38
2021/07/25 07:29:42;;;;;;;0.57;0.30;;;;;;;30.62;44.93;100554.00;5020471;27;69627;-38
2021/07/25 07:32:30;;;;;;;3.70;0.40;;;;;;;30.58;44.41;100531.13;5033352;27;65841;-39
2021/07/25 07:35:11;;;;;;;0.57;0.22;;;;;;;30.70;44.18;100555.56;5056874;27;69515;-38
2021/07/25 07:37:43;;;;;;;0.47;0.20;;;;;;;30.72;43.77;100553.47;5088222;27;66097;-38
2021/07/25 07:40:18;;;;;;;0.73;0.30;;;;;;;30.50;44.15;100507.06;5051510;27;70730;-38
2021/07/25 07:42:53;;;;;;;0.35;0.20;;;;;;;30.72;44.37;100548.88;5034188;27;65505;-38
2021/07/25 07:45:29;;;;;;;1.00;0.40;;;;;;;30.71;44.56;100541.81;5048657;27;69555;-38
2021/07/25 07:48:14;;;;;;;0.43;0.30;;;;;;;30.73;44.34;100542.41;5073374;27;66242;-38
2021/07/25 07:50:52;;;;;;;0.60;0.20;;;;;;;30.70;44.79;100529.34;5073788;27;70022;-38
2021/07/25 07:53:34;;;;;;;0.43;0.30;;;;;;;30.76;44.85;100515.91;5058284;27;66064;-37
2021/07/25 07:56:14;;;;;;;5.13;0.40;;;;;;;30.75;44.81;100509.69;5083176;27;70805;-39
2021/07/25 07:58:51;;;;;;;2.50;0.20;;;;;;;30.76;44.24;100510.50;5058768;27;66334;-38
2021/07/25 08:01:28;;;;;;;0.45;0.28;;;;;;;30.76;44.59;100492.41;5055935;27;69996;-39
2021/07/25 08:04:05;;;;;;;0.82;0.30;;;;;;;30.75;43.77;100487.19;5070903;27;67797;-39
2021/07/25 08:06:39;;;;;;;4.68;0.50;;;;;;;30.87;44.42;100485.38;5088380;27;70317;-41
2021/07/25 08:09:20;;;;;;;8.73;0.30;;;;;;;30.92;43.74;100478.25;5091065;27;65997;-40
2021/07/25 08:12:08;;;;;;;7.13;0.45;;;;;;;30.92;45.66;100480.97;5078377;27;69987;-42
2021/07/25 08:14:44;;;;;;;6.25;0.50;;;;;;;30.93;45.26;100476.34;5044184;27;65365;-42
2021/07/25 08:17:38;;;;;;;6.35;0.50;;;;;;;30.92;45.23;100466.56;5072446;27;68543;-41
2021/07/25 08:20:31;;;;;;;8.40;0.50;;;;;;;30.90;45.29;100466.81;5041701;27;43328;-41
2021/07/25 08:23:10;;;;;;;11.65;0.50;;;;;;;30.90;45.32;100463.28;5060822;27;70388;-41
2021/07/25 08:25:42;;;;;;;4.80;0.60;;;;;;;30.89;44.40;100461.63;5089481;27;65829;-40
2021/07/25 08:28:14;;;;;;;17.25;0.65;;;;;;;30.88;44.54;100468.09;5058771;27;68378;-41
2021/07/25 08:30:50;;;;;;;41.67;1.27;;;;;;;30.88;44.94;100462.69;5091284;27;65782;-41
2021/07/25 08:33:33;;;;;;;10.02;0.75;;;;;;;30.82;47.76;100463.59;5087404;27;70094;-41
2021/07/25 08:36:05;;;;;;;12.43;1.17;;;;;;;30.86;47.74;100451.25;5069011;27;65213;-41
2021/07/25 08:38:39;;;;;;;10.82;0.52;;;;;;;30.86;46.95;100459.38;5085753;27;69944;-41
2021/07/25 08:41:33;;;;;;;7.60;0.70;;;;;;;30.84;47.24;100461.47;5077343;27;67122;-40
2021/07/25 08:44:42;;;;;;;5.45;0.70;;;;;;;30.80;46.34;100460.28;5077089;27;69831;-42
2021/07/25 08:47:34;;;;;;;35.72;0.93;;;;;;;30.88;46.28;100460.78;5077531;27;65539;-40
2021/07/25 08:50:27;;;;;;;6.75;0.40;;;;;;;30.85;45.90;100460.44;5088621;27;70135;-41
2021/07/25 08:53:04;;;;;;;44.07;1.10;;;;;;;30.85;45.98;100471.25;5071442;27;65884;-42
2021/07/25 08:55:49;;;;;;;6.10;0.95;;;;;;;30.90;50.22;100468.69;5076329;27;69083;-41
2021/07/25 08:58:30;;;;;;;14.43;1.10;;;;;;;30.99;50.97;100461.88;5087568;27;66358;-41
2021/07/25 09:01:13;;;;;;;7.53;0.80;;;;;;;31.10;51.51;100452.16;5090650;27;70073;-40
2021/07/25 09:03:58;;;;;;;5.28;0.65;;;;;;;31.20;53.64;100462.41;5092479;27;66738;-42
2021/07/25 09:06:48;;;;;;;10.02;0.70;;;;;;;31.24;53.76;100447.34;5086627;27;70144;-40
2021/07/25 09:09:23;;;;;;;6.53;0.80;;;;;;;31.25;54.02;100443.56;5068657;27;65556;-41
2021/07/25 09:11:59;;;;;;;4.50;0.60;;;;;;;31.32;54.22;100449.72;5076309;27;69892;-41
2021/07/25 09:14:44;;;;;;;4.47;0.75;;;;;;;31.39;54.20;100451.25;5090055;27;66354;-42
2021/07/25 09:17:20;;;;;;;3.10;0.68;;;;;;;31.43;54.29;100451.63;5060843;27;69637;-43
2021/07/25 09:20:28;;;;;;;1.70;0.68;;;;;;;31.41;54.52;100442.91;5078182;27;66302;-40
2021/07/25 09:23:12;;;;;;;2.25;0.50;;;;;;;31.52;54.68;100433.97;5076325;27;69328;-40
2021/07/25 09:26:07;;;;;;;2.60;0.60;;;;;;;31.53;55.34;100419.34;5073545;27;66027;-41
2021/07/25 09:28:43;;;;;;;1.65;0.30;;;;;;;31.65;54.45;100421.22;5073474;27;70009;-41
2021/07/25 09:31:17;;;;;;;2.05;0.52;;;;;;;31.57;55.45;100404.25;5075067;27;66020;-41
2021/07/25 09:33:51;;;;;;;1.52;0.40;;;;;;;31.72;55.46;100438.19;5062623;27;70147;-41
2021/07/25 09:36:24;;;;;;;5.03;0.57;;;;;;;31.76;55.68;100442.94;5074279;27;65512;-40
2021/07/25 09:38:55;;;;;;;2.15;0.73;;;;;;;31.81;56.19;100439.47;5073801;27;69313;-40
2021/07/25 09:41:32;;;;;;;11.25;5.32;;;;;;;31.84;59.59;100447.13;5080918;27;66202;-39
2021/07/25 09:44:09;;;;;;;10.00;5.00;;;;;;;31.92;60.92;100459.56;5069851;27;69710;-39
2021/07/25 09:46:49;;;;;;;8.70;4.53;;;;;;;31.89;60.30;100447.25;5089376;27;66544;-40
2021/07/25 09:49:22;;;;;;;10.30;4.45;;;;;;;31.98;59.92;100459.44;5092468;27;69968;-39
2021/07/25 09:52:12;;;;;;;6.40;4.50;;;;;;;32.04;60.41;100463.91;5075796;27;65564;-41
2021/07/25 09:54:56;;;;;;;6.85;4.00;;;;;;;32.07;60.55;100467.19;5089560;27;68550;-39
2021/07/25 09:57:31;;;;;;;8.00;3.15;;;;;;;32.15;60.27;100466.81;5089897;27;66024;-39
2021/07/25 10:00:13;;;;;;;5.82;2.58;;;;;;;32.17;60.78;100478.28;5061177;27;70487;-40
2021/07/25 10:03:00;;;;;;;4.43;2.28;;;;;;;32.18;60.58;100478.06;5057405;27;65520;-40
2021/07/25 10:05:33;;;;;;;3.17;1.95;;;;;;;32.19;60.58;100487.84;5089619;27;69502;-39
2021/07/25 10:08:15;;;;;;;4.00;2.00;;;;;;;32.10;60.50;100477.59;5093436;27;65348;-39
2021/07/25 10:10:57;;;;;;;2.65;1.75;;;;;;;32.23;60.90;100504.44;5095648;27;69165;-39
2021/07/25 10:13:30;;;;;;;3.83;1.90;;;;;;;32.25;60.88;100508.59;5092944;27;65323;-40
2021/07/25 10:16:01;;;;;;;2.90;1.50;;;;;;;32.25;61.18;100508.59;5092335;27;69372;-39
2021/07/25 10:18:41;;;;;;;2.42;1.90;;;;;;;32.27;61.12;100505.66;5086589;27;65546;-39
2021/07/25 10:21:17;;;;;;;6.15;1.38;;;;;;;32.28;60.81;100507.28;5094099;27;69779;-38
2021/07/25 10:23:56;;;;;;;3.03;1.70;;;;;;;32.31;60.82;100509.50;5092273;27;66430;-39
2021/07/25 10:26:29;;;;;;;3.03;1.70;;;;;;;32.28;61.03;100505.38;5090757;27;69607;-39
2021/07/25 10:29:03;;;;;;;3.72;1.67;;;;;;;32.30;60.91;100498.91;5069033;27;65657;-40
2021/07/25 10:31:41;;;;;;;3.92;1.70;;;;;;;32.29;60.73;100498.09;5072581;27;70087;-40
2021/07/25 10:34:15;;;;;;;2.53;1.20;;;;;;;32.32;60.49;100497.63;5094385;27;65593;-40
2021/07/25 10:36:46;;;;;;;;;;;;;;;32.11;61.35;100500.94;5093302;27;70324;-39
2021/07/25 10:39:23;;;;;;;2.95;0.90;;;;;;;32.42;60.15;100497.81;5095091;27;66356;-41
2021/07/25 10:42:01;;;;;;;2.30;1.17;;;;;;;32.51;59.96;100497.47;5072157;27;69936;-39
2021/07/25 10:44:32;;;;;;;1.95;1.42;;;;;;;32.52;59.49;100504.56;5097194;27;65732;-40
2021/07/25 10:47:31;;;;;;;2.25;1.30;;;;;;;32.51;59.93;100500.19;5077647;27;70048;-40
2021/07/25 10:50:20;;;;;;;3.20;1.13;;;;;;;32.60;59.80;100517.75;5079031;27;65862;-40
2021/07/25 10:52:54;;;;;;;3.65;1.55;;;;;;;32.62;59.36;100507.47;5094901;27;70210;-41
2021/07/25 10:55:44;;;;;;;3.15;1.23;;;;;;;32.62;59.70;100512.91;5093826;27;66948;-40
2021/07/25 10:58:21;;;;;;;2.38;1.40;;;;;;;32.57;59.61;100504.63;5089413;27;69209;-40
2021/07/25 11:01:00;;;;;;;2.10;1.45;;;;;;;32.71;59.48;100531.28;5074634;27;65313;-40
2021/07/25 11:03:43;;;;;;;2.42;1.52;;;;;;;32.71;59.80;100533.19;5092231;27;69045;-40
2021/07/25 11:06:18;;;;;;;2.25;1.60;;;;;;;32.72;59.50;100548.41;5070961;27;66216;-39
2021/07/25 11:08:52;;;;;;;2.20;1.30;;;;;;;32.72;59.67;100549.22;5085690;27;70422;-40
2021/07/25 11:11:34;;;;;;;4.20;2.90;;;;;;;32.73;60.58;100585.34;5073491;27;66219;-39
2021/07/25 11:14:06;;;;;;;11.27;5.90;;;;;;;32.68;60.60;100609.69;5089859;27;69523;-40
2021/07/25 11:16:44;;;;;;;7.47;5.32;;;;;;;32.60;60.95;100618.25;5089510;27;66443;-40
2021/07/25 11:19:24;;;;;;;7.38;4.32;;;;;;;32.53;61.00;100620.25;5090451;27;69303;-39
2021/07/25 11:22:56;;;;;;;4.68;3.72;;;;;;;32.09;63.35;100633.31;5076614;27;66518;-43
2021/07/25 11:25:41;;;;;;;4.57;4.13;;;;;;;32.08;62.58;100623.53;5010854;28;69640;-40
2021/07/25 11:28:41;;;;;;;6.65;4.90;;;;;;;31.85;63.65;100622.41;4976858;28;64566;-41
2021/07/25 11:31:15;;;;;;;9.93;4.80;;;;;;;31.76;64.44;100623.78;5047079;27;69979;-41
2021/07/25 11:33:58;;;;;;;5.28;4.05;;;;;;;31.61;64.64;100616.91;5059175;27;66360;-40
2021/07/25 11:36:35;;;;;;;3.40;2.95;;;;;;;31.58;65.56;100611.94;5088873;27;70079;-40
2021/07/25 11:39:09;;;;;;;4.07;2.95;;;;;;;31.64;65.46;100614.78;5089573;27;64902;-41
2021/07/25 11:41:47;;;;;;;3.42;2.78;;;;;;;31.57;65.43;100598.66;5089818;27;69527;-40
2021/07/25 11:44:29;;;;;;;3.08;2.75;;;;;;;31.73;64.97;100608.81;5077246;27;66517;-41
2021/07/25 11:47:09;;;;;;;5.78;2.00;;;;;;;31.73;65.28;100629.66;5088359;27;69875;-46
2021/07/25 11:49:46;;;;;;;3.00;2.10;;;;;;;31.77;64.93;100626.28;5090152;27;65391;-41
2021/07/25 11:52:28;;;;;;;2.67;2.25;;;;;;;31.79;64.79;100626.06;5091927;27;69599;-41
2021/07/25 11:55:52;;;;;;;2.42;2.22;;;;;;;31.80;64.86;100606.00;5074675;27;65883;-40
2021/07/25 11:58:26;;;;;;;2.60;2.00;;;;;;;31.82;64.61;100603.88;5084966;27;69843;-40
2021/07/25 12:01:14;;;;;;;2.95;1.92;;;;;;;31.81;64.86;100599.50;5077241;27;66116;-41
2021/07/25 12:03:55;;;;;;;2.42;2.13;;;;;;;31.85;64.37;100600.69;5055441;27;70106;-40
2021/07/25 12:06:30;;;;;;;2.40;1.80;;;;;;;31.84;64.77;100585.47;5066762;27;65183;-39
2021/07/25 12:09:11;;;;;;;8.93;2.58;;;;;;;31.84;64.92;100593.59;5076964;27;69769;-40
2021/07/25 12:12:10;;;;;;;6.97;2.67;;;;;;;31.66;64.96;100580.16;5098935;27;44249;-39
2021/07/25 12:14:59;;;;;;;13.43;4.03;;;;;;;31.63;64.62;100592.28;5059110;27;69221;-38
2021/07/25 12:17:47;;;;;;;5.00;3.35;;;;;;;31.72;64.69;100614.47;5067127;27;66533;-39